Terminal Aerodrome Forecast
Issued by NWS Topeka, KS

Home | Current Version | Previous Version | Graphics & Text | Print | Product List | Glossary On
Versions: 1 2 3 4 5 6 7 8 9 10 11 12 13 14 15 16 17
913
FTUS43 KTOP 051327 AAA
TAFTOP
TAF AMD
KTOP 051327Z 0513/0612 17006KT P6SM SKC
      TEMPO 0513/0517 5SM BR BKN008
     FM051700 18012G22KT P6SM FEW015 SCT150
     FM060000 VRB03KT P6SM SCT150
     FM060700 34013KT P6SM BKN040=

USA.gov is the U.S. government's official web portal to all federal, state and local government web resources and services.